Latest Weather Observations for Daly Waters

IDD60801

Issued at 8:41 pm CST Tuesday 4 August 2020 (issued every 10 minutes, with the page automatically refreshed every 10 minutes)

About weather observations | Map of weather stations | Latest weather observations for NT | Other Formats
Station Details ID: 014626 Name: DALY WATERS AIRSTRIP Lat: -16.26 Lon: 133.38 Height: 209.84 m
Data from the previous 72 hours. | See also: Recent months at Daly Waters
Date/Time
CST
Temp
°C
App
Temp
°C
Dew
Point
°C
Rel
Hum
%
Delta-T
°C
Wind Press
QNH
hPa
Press
MSL
hPa
Rain since
9am
mm
Dir  Spd
km/h
Gust
km/h
Spd
kts
Gust
kts
04/08:30pm 20.9 20.8 9.5 48 6.2 CALM 0 0 0 0 1011.8 1011.0 0.0
04/08:00pm 21.8 21.9 10.0 47 6.5 CALM 0 0 0 0 1011.5 1010.7 0.0
04/07:30pm 23.5 23.5 9.9 42 7.5 CALM 0 0 0 0 1011.1 1010.3 0.0
04/07:00pm 25.9 25.6 8.8 34 9.4 CALM 0 2 0 1 1010.9 1010.1 0.0
04/06:30pm 28.8 27.7 10.0 31 10.7 NNE 6 9 3 5 1010.6 1009.8 0.0
04/06:00pm 30.0 29.5 9.5 28 11.6 E 2 6 1 3 1010.4 1009.6 0.0
04/05:30pm 30.4 29.1 9.3 27 11.9 ENE 6 9 3 5 1010.1 1009.3 0.0
04/05:00pm 30.9 29.7 9.7 27 12.1 NE 6 15 3 8 1010.0 1009.1 0.0
04/04:30pm 30.9 29.2 9.7 27 12.1 N 9 15 5 8 1010.0 1009.1 0.0
04/04:00pm 31.0 29.7 9.8 27 12.1 NE 7 13 4 7 1010.1 1009.3 0.0
04/03:30pm 31.4 29.8 10.2 27 12.2 E 9 19 5 10 1010.3 1009.5 0.0
04/03:00pm 31.3 30.2 10.1 27 12.2 ENE 6 15 3 8 1010.7 1009.9 0.0
04/02:30pm 30.2 28.8 9.7 28 11.7 NE 7 15 4 8 1011.1 1010.3 0.0
04/02:00pm 30.2 29.0 10.2 29 11.5 NE 7 13 4 7 1011.4 1010.6 0.0
04/01:30pm 30.1 28.8 10.1 29 11.4 NE 7 11 4 6 1012.0 1011.2 0.0
04/01:00pm 29.9 27.5 9.9 29 11.4 NE 13 22 7 12 1012.6 1011.8 0.0
04/12:30pm 29.6 27.5 9.7 29 11.3 NE 11 19 6 10 1013.1 1012.3 0.0
04/12:00pm 29.3 26.9 9.9 30 11.0 NNE 13 20 7 11 1013.8 1012.9 0.0
04/11:30am 28.2 25.8 9.9 32 10.3 NNE 13 20 7 11 1014.2 1013.3 0.0
04/11:00am 27.2 24.9 10.4 35 9.5 NNE 13 20 7 11 1014.7 1013.9 0.0
04/10:30am 25.6 23.7 11.7 42 8.0 NNE 13 19 7 10 1015.1 1014.3 0.0
04/10:00am 24.5 23.4 12.1 46 7.1 N 9 15 5 8 1015.2 1014.4 0.0
04/09:30am 23.4 22.6 11.8 48 6.6 NNE 7 13 4 7 1015.3 1014.5 0.0
04/09:00am 22.4 21.9 12.6 54 5.6 ENE 7 11 4 6 1015.0 1014.2 0.0
04/08:30am 20.3 19.8 10.7 54 5.3 E 4 7 2 4 1014.7 1013.9 0.0
04/08:00am 17.9 16.6 9.3 57 4.5 ESE 6 7 3 4 1014.4 1013.6 0.0
04/07:30am 14.8 13.7 8.5 66 3.2 ESE 4 6 2 3 1014.0 1013.1 0.0
04/07:00am 13.4 12.6 8.0 70 2.7 SSE 2 2 1 1 1013.4 1012.6 0.0
04/06:30am 13.7 12.5 8.1 69 2.8 SSE 4 6 2 3 1013.2 1012.4 0.0
04/06:00am 13.5 12.0 8.4 71 2.6 SSE 6 7 3 4 1013.0 1012.2 0.0
04/05:30am 13.8 13.4 8.2 69 2.8 CALM 0 0 0 0 1012.7 1011.9 0.0
04/05:00am 14.4 13.9 7.9 65 3.3 CALM 0 0 0 0 1012.5 1011.7 0.0
04/04:30am 14.8 14.4 8.3 65 3.3 CALM 0 0 0 0 1012.5 1011.7 0.0
04/04:00am 15.4 15.0 8.2 62 3.7 CALM 0 0 0 0 1012.4 1011.6 0.0
04/03:30am 16.4 16.1 8.6 60 4.0 CALM 0 0 0 0 1012.5 1011.7 0.0
04/03:00am 17.4 17.2 9.1 58 4.4 CALM 0 0 0 0 1012.6 1011.8 0.0
04/02:30am 18.1 17.1 8.9 55 4.8 NE 4 4 2 2 1012.7 1011.9 0.0
04/02:00am 18.4 17.9 9.2 55 4.9 NNE 2 6 1 3 1012.9 1012.1 0.0
04/01:30am 18.5 17.7 9.6 56 4.7 NNE 4 6 2 3 1013.1 1012.3 0.0
04/01:00am 18.7 17.9 9.8 56 4.8 NNE 4 4 2 2 1013.2 1012.4 0.0
04/12:30am 18.4 17.5 9.2 55 4.9 NE 4 4 2 2 1013.2 1012.4 0.0
04/12:00am 19.5 18.9 9.1 51 5.5 ENE 2 2 1 1 1013.2 1012.4 0.0
 
Date/Time
CST
Temp
°C
App
Temp
°C
Dew
Point
°C
Rel
Hum
%
Delta-T
°C
Wind Press
QNH
hPa
Press
MSL
hPa
Rain since
9am
mm
Dir  Spd
km/h
Gust
km/h
Spd
kts
Gust
kts
03/11:30pm 21.3 20.2 9.9 48 6.2 NE 6 9 3 5 1013.2 1012.4 0.0
03/11:00pm 20.5 19.2 11.2 55 5.2 ENE 9 19 5 10 1013.2 1012.4 0.0
03/10:30pm 17.9 17.5 8.2 53 5.0 CALM 0 0 0 0 1012.9 1012.1 0.0
03/10:00pm 18.2 17.9 8.5 53 5.1 CALM 0 0 0 0 1013.0 1012.2 0.0
03/09:30pm 18.9 18.6 8.6 51 5.4 CALM 0 0 0 0 1012.9 1012.1 0.0
03/09:00pm 19.3 18.9 8.3 49 5.8 CALM 0 0 0 0 1012.6 1011.8 0.0
03/08:30pm 19.8 19.3 7.9 46 6.2 CALM 0 0 0 0 1012.4 1011.6 0.0
03/08:00pm 20.7 20.5 9.0 47 6.3 CALM 0 0 0 0 1012.0 1011.2 0.0
03/07:30pm 22.2 21.6 7.6 39 7.7 CALM 0 0 0 0 1011.6 1010.8 0.0
03/07:00pm 24.0 23.4 7.2 34 8.9 CALM 0 0 0 0 1011.2 1010.4 0.0
03/06:30pm 27.5 26.6 7.9 29 10.7 N 2 2 1 1 1011.0 1010.2 0.0
03/06:00pm 29.8 29.2 8.8 27 11.7 NNE 2 6 1 3 1010.9 1010.1 0.0
03/05:30pm 30.1 28.4 8.5 26 12.0 ENE 7 13 4 7 1010.7 1009.9 0.0
03/05:00pm 30.3 28.3 8.7 26 12.1 NE 9 15 5 8 1010.6 1009.8 0.0
03/04:30pm 31.0 29.6 8.7 25 12.5 NNW 6 11 3 6 1010.5 1009.7 0.0
03/04:00pm 30.7 29.2 8.4 25 12.4 NNE 6 11 3 6 1010.6 1009.8 0.0
03/03:30pm 30.8 28.0 8.5 25 12.5 ENE 13 22 7 12 1010.8 1010.0 0.0
03/03:00pm 30.6 29.0 8.9 26 12.2 N 7 19 4 10 1011.1 1010.3 0.0
03/02:30pm 30.5 29.1 9.4 27 12.0 NW 7 22 4 12 1011.6 1010.8 0.0
03/02:00pm 29.9 27.2 8.9 27 11.8 N 13 24 7 13 1012.1 1011.3 0.0
03/01:30pm 29.8 27.1 8.8 27 11.7 NE 13 28 7 15 1012.5 1011.7 0.0
03/01:00pm 29.6 26.4 8.6 27 11.7 NE 15 28 8 15 1012.9 1012.1 0.0
03/12:30pm 29.6 27.0 9.2 28 11.5 NNE 13 30 7 16 1013.7 1012.8 0.0
03/12:00pm 28.5 26.8 9.7 31 10.6 NNE 9 19 5 10 1014.3 1013.5 0.0
03/11:30am 28.5 26.5 10.2 32 10.4 NE 11 19 6 10 1014.7 1013.9 0.0
03/11:00am 27.0 25.2 10.7 36 9.3 NE 11 17 6 9 1015.4 1014.6 0.0
03/10:30am 25.9 24.5 10.9 39 8.5 NE 9 17 5 9 1015.8 1015.0 0.0
03/10:00am 24.7 23.9 11.6 44 7.5 NE 7 13 4 7 1016.1 1015.3 0.0
03/09:30am 23.8 23.5 12.8 50 6.4 NE 6 9 3 5 1016.1 1015.3 0.0
03/09:00am 21.6 21.6 13.5 60 4.7 E 6 11 3 6 1016.1 1015.3 0.0
03/08:30am 19.6 19.6 12.4 63 4.1 ESE 4 7 2 4 1015.9 1015.1 0.0
03/08:00am 16.4 16.3 10.9 70 3.0 E 2 4 1 2 1015.5 1014.7 0.0
03/07:30am 11.9 11.3 7.4 74 2.2 CALM 0 0 0 0 1015.1 1014.3 0.0
03/07:00am 11.2 10.4 6.7 74 2.2 CALM 0 0 0 0 1014.8 1014.0 0.0
03/06:30am 11.4 10.7 6.9 74 2.2 CALM 0 0 0 0 1014.8 1014.0 0.0
03/06:00am 11.8 11.2 7.5 75 2.1 CALM 0 0 0 0 1014.4 1013.6 0.0
03/05:30am 12.1 11.5 7.6 74 2.2 CALM 0 0 0 0 1014.4 1013.6 0.0
03/05:00am 12.0 11.2 6.7 70 2.6 CALM 0 0 0 0 1014.3 1013.5 0.0
03/04:30am 12.4 11.9 7.7 73 2.3 CALM 0 0 0 0 1014.2 1013.3 0.0
03/04:00am 12.9 12.4 8.0 72 2.4 CALM 0 0 0 0 1014.0 1013.1 0.0
03/03:30am 12.9 12.1 6.7 66 3.0 CALM 0 0 0 0 1014.0 1013.1 0.0
03/03:00am 13.4 12.8 7.4 67 3.0 CALM 0 0 0 0 1014.3 1013.5 0.0
03/02:30am 13.7 13.0 6.8 63 3.4 CALM 0 0 0 0 1014.2 1013.3 0.0
03/02:00am 14.2 13.5 7.0 62 3.5 CALM 0 2 0 1 1014.3 1013.5 0.0
03/01:30am 14.5 13.0 6.6 59 3.9 ENE 4 6 2 3 1014.5 1013.7 0.0
03/01:00am 14.7 13.1 6.5 58 4.0 ENE 4 4 2 2 1014.7 1013.9 0.0
03/12:30am 15.2 13.7 6.7 57 4.2 ENE 4 4 2 2 1014.7 1013.9 0.0
03/12:00am 16.4 14.7 7.6 56 4.5 NE 6 6 3 3 1014.9 1014.1 0.0
 
Date/Time
CST
Temp
°C
App
Temp
°C
Dew
Point
°C
Rel
Hum
%
Delta-T
°C
Wind Press
QNH
hPa
Press
MSL
hPa
Rain since
9am
mm
Dir  Spd
km/h
Gust
km/h
Spd
kts
Gust
kts
02/11:30pm 16.0 14.5 6.7 54 4.6 NE 4 6 2 3 1014.9 1014.1 0.0
02/11:00pm 16.1 14.9 6.3 52 4.8 NE 2 4 1 2 1014.8 1014.0 0.0
02/10:30pm 17.5 16.5 7.3 51 5.2 NE 2 4 1 2 1014.8 1014.0 0.0
02/10:00pm 17.1 16.1 7.5 53 4.9 ESE 2 6 1 3 1014.5 1013.7 0.0
02/09:30pm 16.8 15.3 6.6 51 5.1 SE 4 6 2 3 1014.2 1013.3 0.0
02/09:00pm 17.0 16.0 5.6 47 5.6 CALM 0 0 0 0 1013.9 1013.0 0.0
02/08:30pm 17.8 16.8 5.4 44 6.1 CALM 0 0 0 0 1013.6 1012.7 0.0
02/08:00pm 19.1 17.9 4.8 39 7.0 CALM 0 0 0 0 1013.2 1012.4 0.0
02/07:30pm 21.0 19.8 4.6 34 8.1 CALM 0 2 0 1 1012.8 1012.0 0.0
02/07:00pm 24.4 22.4 6.2 31 9.4 NE 6 7 3 4 1012.6 1011.8 0.0
02/06:30pm 26.6 24.5 6.6 28 10.6 NE 7 9 4 5 1012.6 1011.8 0.0
02/06:00pm 28.4 26.4 7.1 26 11.5 NNE 7 13 4 7 1012.4 1011.6 0.0
02/05:30pm 29.1 26.3 7.1 25 11.9 NE 11 15 6 8 1012.3 1011.5 0.0
02/05:00pm 29.4 27.3 6.7 24 12.2 ENE 7 17 4 9 1012.1 1011.3 0.0
02/04:30pm 29.8 28.0 7.1 24 12.3 NNE 6 13 3 7 1012.1 1011.3 0.0
02/04:00pm 29.6 25.9 6.3 23 12.5 E 15 22 8 12 1012.2 1011.4 0.0
02/03:30pm 29.5 25.9 6.8 24 12.3 ENE 15 28 8 15 1012.3 1011.5 0.0
02/03:00pm 29.2 25.2 6.6 24 12.1 NNE 17 24 9 13 1012.6 1011.8 0.0
02/02:30pm 29.3 24.9 6.7 24 12.2 NE 19 30 10 16 1013.2 1012.4 0.0
02/02:00pm 28.6 24.6 6.7 25 11.7 N 17 22 9 12 1013.8 1012.9 0.0
02/01:42pm 28.8 24.3 6.8 25 11.8 NNE 20 37 11 20 1013.8 1012.9 0.0
02/01:30pm 29.3 25.2 7.8 26 11.8 N 19 30 10 16 1014.0 1013.1 0.0
02/01:00pm 28.1 23.2 6.8 26 11.4 NE 22 33 12 18 1014.6 1013.8 0.0
02/12:30pm 28.1 23.3 7.4 27 11.2 NNE 22 37 12 20 1015.2 1014.4 0.0
02/12:00pm 27.7 22.8 7.0 27 11.1 NE 22 35 12 19 1015.7 1014.9 0.0
02/11:30am 26.6 21.9 6.1 27 10.7 ENE 20 33 11 18 1016.4 1015.6 0.0
02/11:00am 26.6 21.9 6.1 27 10.8 ENE 20 30 11 16 1016.7 1015.9 0.0
02/10:30am 25.9 22.4 7.0 30 10.0 ENE 15 22 8 12 1017.0 1016.2 0.0
02/10:00am 23.9 21.4 8.3 37 8.4 ENE 11 24 6 13 1017.5 1016.7 0.0
02/09:30am 22.1 21.3 11.2 50 6.1 ESE 6 9 3 5 1017.6 1016.8 0.0
02/09:00am 19.9 19.3 11.7 59 4.6 ESE 6 9 3 5 1017.5 1016.7 0.0
02/08:30am 17.1 16.0 8.5 57 4.4 SSE 4 7 2 4 1017.5 1016.7 0.0
02/08:00am 13.9 12.0 3.1 48 4.9 SSE 2 4 1 2 1017.3 1016.5 0.0
02/07:30am 9.7 7.2 -0.8 48 4.2 SSE 2 4 1 2 1017.0 1016.2 0.0
02/07:00am 8.6 5.7 -0.9 51 3.7 S 4 6 2 3 1017.0 1016.2 0.0
02/06:30am 8.6 5.7 -0.9 51 3.7 S 4 6 2 3 1016.7 1015.9 0.0
02/06:00am 8.3 5.4 -1.2 51 3.7 SSE 4 6 2 3 1016.8 1016.0 0.0
02/05:30am 8.3 5.7 -1.5 50 3.8 SE 2 2 1 1 1016.6 1015.8 0.0
02/05:00am 8.8 6.1 -2.2 46 4.2 SE 2 2 1 1 1016.5 1015.7 0.0
02/04:30am 8.7 6.4 -2.0 47 4.1 CALM 0 0 0 0 1016.6 1015.8 0.0
02/04:00am 9.0 6.7 -2.3 45 4.3 CALM 0 0 0 0 1016.5 1015.7 0.0
02/03:30am 9.4 7.0 -2.8 42 4.6 CALM 0 0 0 0 1016.4 1015.6 0.0
02/03:00am 9.8 7.1 -2.5 42 4.7 SSW 2 2 1 1 1016.4 1015.6 0.0
02/02:30am 10.1 7.3 -2.9 40 4.9 S 2 4 1 2 1016.7 1015.9 0.0
02/02:00am 10.5 7.3 -3.9 36 5.4 S 4 4 2 2 1016.7 1015.9 0.0
02/01:30am 11.0 7.3 -5.0 32 5.8 S 6 6 3 3 1016.7 1015.9 0.0
02/01:00am 12.2 8.7 -6.2 27 6.6 S 4 4 2 2 1017.0 1016.2 0.0
02/12:30am 16.4 12.9 -6.0 21 8.5 ESE 4 7 2 4 1016.9 1016.1 0.0
02/12:00am 14.1 10.1 -5.6 25 7.4 SSE 7 9 4 5 1016.4 1015.6 0.0
 
Date/Time
CST
Temp
°C
App
Temp
°C
Dew
Point
°C
Rel
Hum
%
Delta-T
°C
Wind Press
QNH
hPa
Press
MSL
hPa
Rain since
9am
mm
Dir  Spd
km/h
Gust
km/h
Spd
kts
Gust
kts
01/11:30pm 10.3 6.4 -4.9 34 5.5 SSE 7 9 4 5 1016.4 1015.6 0.0
01/11:00pm 10.8 7.5 -4.4 34 5.6 SSE 4 6 2 3 1016.3 1015.5 0.0
01/10:30pm 12.1 8.8 -4.5 31 6.2 SSE 4 6 2 3 1016.4 1015.6 0.0
01/10:00pm 13.9 10.4 -5.8 25 7.3 SSE 4 6 2 3 1016.3 1015.5 0.0
01/09:30pm 14.7 10.8 -6.2 23 7.8 SSE 6 7 3 4 1016.2 1015.4 0.0
01/09:00pm 16.1 12.2 -6.2 21 8.4 SSE 6 7 3 4 1016.2 1015.4 0.0

Other formats

Comma delimited format used in spreadsheet applications
http://www.bom.gov.au/fwo/IDD60801/IDD60801.94234.axf

JavaScript Object Notation format (JSON) in row-major order
http://www.bom.gov.au/fwo/IDD60801/IDD60801.94234.json

Data quality

Most of these data are generated automatically and are frequently updated. Quality checks on data are not normally performed. It is possible for incorrect values to appear. Refer to information at About Latest Weather Observations and please check the disclaimer before using these data.